sensor_id;sensor_type;location;lat;lon;timestamp;temperature;humidity
4896;DHT22;2463;49.948;8.472;2023-09-12T00:00:22;19.60;99.90
4896;DHT22;2463;49.948;8.472;2023-09-12T00:02:50;19.60;99.90
4896;DHT22;2463;49.948;8.472;2023-09-12T00:05:17;19.60;99.90
4896;DHT22;2463;49.948;8.472;2023-09-12T00:07:44;19.60;99.90
4896;DHT22;2463;49.948;8.472;2023-09-12T00:10:11;19.60;99.90
4896;DHT22;2463;49.948;8.472;2023-09-12T00:12:37;19.60;99.90
4896;DHT22;2463;49.948;8.472;2023-09-12T00:15:04;19.60;99.90
4896;DHT22;2463;49.948;8.472;2023-09-12T00:17:31;19.60;99.90
4896;DHT22;2463;49.948;8.472;2023-09-12T00:19:58;19.50;99.90
4896;DHT22;2463;49.948;8.472;2023-09-12T00:22:25;19.60;99.90
4896;DHT22;2463;49.948;8.472;2023-09-12T00:24:51;19.50;99.90
4896;DHT22;2463;49.948;8.472;2023-09-12T00:27:18;19.50;99.90
4896;DHT22;2463;49.948;8.472;2023-09-12T00:29:45;19.50;99.90
4896;DHT22;2463;49.948;8.472;2023-09-12T00:32:11;19.50;99.90
4896;DHT22;2463;49.948;8.472;2023-09-12T00:34:38;19.50;99.90
4896;DHT22;2463;49.948;8.472;2023-09-12T00:37:05;19.40;99.90
4896;DHT22;2463;49.948;8.472;2023-09-12T00:39:32;19.40;99.90
4896;DHT22;2463;49.948;8.472;2023-09-12T00:41:59;19.50;99.90
4896;DHT22;2463;49.948;8.472;2023-09-12T00:44:26;19.40;99.90
4896;DHT22;2463;49.948;8.472;2023-09-12T00:46:53;19.40;99.90
4896;DHT22;2463;49.948;8.472;2023-09-12T00:49:21;19.40;99.90
4896;DHT22;2463;49.948;8.472;2023-09-12T00:51:49;19.40;99.90
4896;DHT22;2463;49.948;8.472;2023-09-12T00:54:17;19.40;99.90
4896;DHT22;2463;49.948;8.472;2023-09-12T00:56:45;19.30;99.90
4896;DHT22;2463;49.948;8.472;2023-09-12T00:59:14;19.20;99.90
4896;DHT22;2463;49.948;8.472;2023-09-12T01:01:42;19.20;99.90
4896;DHT22;2463;49.948;8.472;2023-09-12T01:04:10;19.10;99.90
4896;DHT22;2463;49.948;8.472;2023-09-12T01:06:56;19.00;99.90
4896;DHT22;2463;49.948;8.472;2023-09-12T01:09:23;18.90;99.90
4896;DHT22;2463;49.948;8.472;2023-09-12T01:11:50;19.00;99.90
4896;DHT22;2463;49.948;8.472;2023-09-12T01:14:17;19.00;99.90
4896;DHT22;2463;49.948;8.472;2023-09-12T01:16:44;19.00;99.90
4896;DHT22;2463;49.948;8.472;2023-09-12T01:19:12;18.90;99.90
4896;DHT22;2463;49.948;8.472;2023-09-12T01:27:20;18.90;99.90
4896;DHT22;2463;49.948;8.472;2023-09-12T01:29:51;18.90;99.90
4896;DHT22;2463;49.948;8.472;2023-09-12T01:32:20;18.90;99.90
4896;DHT22;2463;49.948;8.472;2023-09-12T01:34:47;18.90;99.90
4896;DHT22;2463;49.948;8.472;2023-09-12T01:37:14;18.70;99.90
4896;DHT22;2463;49.948;8.472;2023-09-12T01:39:41;18.80;99.90
4896;DHT22;2463;49.948;8.472;2023-09-12T01:42:14;18.80;99.90
4896;DHT22;2463;49.948;8.472;2023-09-12T01:44:46;18.90;99.90
4896;DHT22;2463;49.948;8.472;2023-09-12T01:47:14;18.90;99.90
4896;DHT22;2463;49.948;8.472;2023-09-12T01:49:42;18.70;99.90
4896;DHT22;2463;49.948;8.472;2023-09-12T01:52:10;18.70;99.90
4896;DHT22;2463;49.948;8.472;2023-09-12T01:54:37;18.50;99.90
4896;DHT22;2463;49.948;8.472;2023-09-12T01:57:05;18.70;99.90
4896;DHT22;2463;49.948;8.472;2023-09-12T01:59:32;18.60;99.90
4896;DHT22;2463;49.948;8.472;2023-09-12T02:01:59;18.60;99.90
4896;DHT22;2463;49.948;8.472;2023-09-12T02:04:25;18.60;99.90
4896;DHT22;2463;49.948;8.472;2023-09-12T02:06:52;18.60;99.90
4896;DHT22;2463;49.948;8.472;2023-09-12T02:09:19;18.70;99.90
4896;DHT22;2463;49.948;8.472;2023-09-12T02:11:46;18.70;99.90
4896;DHT22;2463;49.948;8.472;2023-09-12T02:14:13;18.70;99.90
4896;DHT22;2463;49.948;8.472;2023-09-12T02:16:39;18.70;99.90
4896;DHT22;2463;49.948;8.472;2023-09-12T02:19:10;18.70;99.90
4896;DHT22;2463;49.948;8.472;2023-09-12T02:21:37;18.70;99.90
4896;DHT22;2463;49.948;8.472;2023-09-12T02:24:04;18.70;99.90
4896;DHT22;2463;49.948;8.472;2023-09-12T02:26:31;18.70;99.90
4896;DHT22;2463;49.948;8.472;2023-09-12T02:29:03;18.60;99.90
4896;DHT22;2463;49.948;8.472;2023-09-12T02:31:32;18.70;99.90
4896;DHT22;2463;49.948;8.472;2023-09-12T02:33:59;18.60;99.90
4896;DHT22;2463;49.948;8.472;2023-09-12T02:36:25;18.60;99.90
4896;DHT22;2463;49.948;8.472;2023-09-12T02:38:52;18.60;99.90
4896;DHT22;2463;49.948;8.472;2023-09-12T02:41:19;18.60;99.90
4896;DHT22;2463;49.948;8.472;2023-09-12T02:43:46;18.70;99.90
4896;DHT22;2463;49.948;8.472;2023-09-12T02:46:12;18.80;99.90
4896;DHT22;2463;49.948;8.472;2023-09-12T02:48:39;18.70;99.90
4896;DHT22;2463;49.948;8.472;2023-09-12T02:51:06;18.70;99.90
4896;DHT22;2463;49.948;8.472;2023-09-12T02:53:33;18.80;99.90
4896;DHT22;2463;49.948;8.472;2023-09-12T02:56:00;18.90;99.90
4896;DHT22;2463;49.948;8.472;2023-09-12T02:58:26;18.90;99.90
4896;DHT22;2463;49.948;8.472;2023-09-12T03:00:53;18.90;99.90
4896;DHT22;2463;49.948;8.472;2023-09-12T03:03:21;19.00;99.90
4896;DHT22;2463;49.948;8.472;2023-09-12T03:05:57;19.00;99.90
4896;DHT22;2463;49.948;8.472;2023-09-12T03:08:24;19.10;99.90
4896;DHT22;2463;49.948;8.472;2023-09-12T03:10:55;19.20;99.90
4896;DHT22;2463;49.948;8.472;2023-09-12T03:13:25;19.20;99.90
4896;DHT22;2463;49.948;8.472;2023-09-12T03:15:52;19.20;99.90
4896;DHT22;2463;49.948;8.472;2023-09-12T03:18:19;19.20;99.90
4896;DHT22;2463;49.948;8.472;2023-09-12T03:20:46;19.20;99.90
4896;DHT22;2463;49.948;8.472;2023-09-12T03:23:13;19.20;99.90
4896;DHT22;2463;49.948;8.472;2023-09-12T03:25:39;19.20;99.90
4896;DHT22;2463;49.948;8.472;2023-09-12T03:28:07;19.10;99.90
4896;DHT22;2463;49.948;8.472;2023-09-12T03:30:35;19.10;99.90
4896;DHT22;2463;49.948;8.472;2023-09-12T03:33:02;19.10;99.90
4896;DHT22;2463;49.948;8.472;2023-09-12T03:35:30;19.10;99.90
4896;DHT22;2463;49.948;8.472;2023-09-12T03:37:57;19.10;99.90
4896;DHT22;2463;49.948;8.472;2023-09-12T03:40:24;19.10;99.90
4896;DHT22;2463;49.948;8.472;2023-09-12T03:42:51;19.10;99.90
4896;DHT22;2463;49.948;8.472;2023-09-12T03:45:17;19.10;99.90
4896;DHT22;2463;49.948;8.472;2023-09-12T03:47:44;19.10;99.90
4896;DHT22;2463;49.948;8.472;2023-09-12T03:50:13;19.00;99.90
4896;DHT22;2463;49.948;8.472;2023-09-12T03:52:40;19.00;99.90
4896;DHT22;2463;49.948;8.472;2023-09-12T03:55:07;18.90;99.90
4896;DHT22;2463;49.948;8.472;2023-09-12T03:57:34;18.90;99.90
4896;DHT22;2463;49.948;8.472;2023-09-12T04:00:01;18.90;99.90
4896;DHT22;2463;49.948;8.472;2023-09-12T04:02:32;18.90;99.90
4896;DHT22;2463;49.948;8.472;2023-09-12T04:04:58;18.90;99.90
4896;DHT22;2463;49.948;8.472;2023-09-12T04:07:26;19.00;99.90
4896;DHT22;2463;49.948;8.472;2023-09-12T04:09:53;19.00;99.90
4896;DHT22;2463;49.948;8.472;2023-09-12T04:12:19;19.00;99.90
4896;DHT22;2463;49.948;8.472;2023-09-12T04:14:49;19.10;99.90
4896;DHT22;2463;49.948;8.472;2023-09-12T04:17:17;19.10;99.90
4896;DHT22;2463;49.948;8.472;2023-09-12T04:19:44;19.10;99.90
4896;DHT22;2463;49.948;8.472;2023-09-12T04:22:11;19.10;99.90
4896;DHT22;2463;49.948;8.472;2023-09-12T04:24:37;19.10;99.90
4896;DHT22;2463;49.948;8.472;2023-09-12T04:27:04;19.20;99.90
4896;DHT22;2463;49.948;8.472;2023-09-12T04:29:34;19.20;99.90
4896;DHT22;2463;49.948;8.472;2023-09-12T04:32:02;19.20;99.90
4896;DHT22;2463;49.948;8.472;2023-09-12T04:34:30;19.20;99.90
4896;DHT22;2463;49.948;8.472;2023-09-12T04:36:57;19.20;99.90
4896;DHT22;2463;49.948;8.472;2023-09-12T04:39:24;19.20;99.90
4896;DHT22;2463;49.948;8.472;2023-09-12T04:41:51;19.20;99.90
4896;DHT22;2463;49.948;8.472;2023-09-12T04:44:17;19.30;99.90
4896;DHT22;2463;49.948;8.472;2023-09-12T04:46:44;19.30;99.90
4896;DHT22;2463;49.948;8.472;2023-09-12T04:49:11;19.30;99.90
4896;DHT22;2463;49.948;8.472;2023-09-12T04:51:38;19.30;99.90
4896;DHT22;2463;49.948;8.472;2023-09-12T04:54:05;19.30;99.90
4896;DHT22;2463;49.948;8.472;2023-09-12T04:56:31;19.40;99.90
4896;DHT22;2463;49.948;8.472;2023-09-12T04:58:58;19.40;99.90
4896;DHT22;2463;49.948;8.472;2023-09-12T05:01:25;19.40;99.90
4896;DHT22;2463;49.948;8.472;2023-09-12T05:03:52;19.40;99.90
4896;DHT22;2463;49.948;8.472;2023-09-12T05:06:19;19.50;99.90
4896;DHT22;2463;49.948;8.472;2023-09-12T05:08:46;19.50;99.90
4896;DHT22;2463;49.948;8.472;2023-09-12T05:11:12;19.50;99.90
4896;DHT22;2463;49.948;8.472;2023-09-12T05:13:39;19.60;99.90
4896;DHT22;2463;49.948;8.472;2023-09-12T05:16:06;19.60;99.90
4896;DHT22;2463;49.948;8.472;2023-09-12T05:18:33;19.60;99.90
4896;DHT22;2463;49.948;8.472;2023-09-12T05:20:59;19.70;99.90
4896;DHT22;2463;49.948;8.472;2023-09-12T05:23:26;19.70;99.90
4896;DHT22;2463;49.948;8.472;2023-09-12T05:25:53;19.70;99.90
4896;DHT22;2463;49.948;8.472;2023-09-12T05:28:20;19.70;99.90
4896;DHT22;2463;49.948;8.472;2023-09-12T05:30:47;19.70;99.90
4896;DHT22;2463;49.948;8.472;2023-09-12T05:33:14;19.80;99.90
4896;DHT22;2463;49.948;8.472;2023-09-12T05:35:40;19.80;99.90
4896;DHT22;2463;49.948;8.472;2023-09-12T05:38:07;19.80;99.90
4896;DHT22;2463;49.948;8.472;2023-09-12T05:40:34;19.80;99.90
4896;DHT22;2463;49.948;8.472;2023-09-12T05:43:00;19.90;99.90
4896;DHT22;2463;49.948;8.472;2023-09-12T05:45:28;19.90;99.90
4896;DHT22;2463;49.948;8.472;2023-09-12T05:47:57;19.90;99.90
4896;DHT22;2463;49.948;8.472;2023-09-12T05:50:24;20.00;99.90
4896;DHT22;2463;49.948;8.472;2023-09-12T05:52:50;20.00;99.90
4896;DHT22;2463;49.948;8.472;2023-09-12T05:55:17;20.10;99.90
4896;DHT22;2463;49.948;8.472;2023-09-12T05:57:44;20.10;99.90
4896;DHT22;2463;49.948;8.472;2023-09-12T06:00:11;20.20;99.90
4896;DHT22;2463;49.948;8.472;2023-09-12T06:02:39;20.20;99.90
4896;DHT22;2463;49.948;8.472;2023-09-12T06:05:06;20.20;99.90
4896;DHT22;2463;49.948;8.472;2023-09-12T06:07:33;20.30;99.90
4896;DHT22;2463;49.948;8.472;2023-09-12T06:10:00;20.20;99.90
4896;DHT22;2463;49.948;8.472;2023-09-12T06:12:27;20.30;99.90
4896;DHT22;2463;49.948;8.472;2023-09-12T06:14:54;20.30;99.90
4896;DHT22;2463;49.948;8.472;2023-09-12T06:17:22;20.30;99.90
4896;DHT22;2463;49.948;8.472;2023-09-12T06:19:49;20.30;99.90
4896;DHT22;2463;49.948;8.472;2023-09-12T06:22:16;20.30;99.90
4896;DHT22;2463;49.948;8.472;2023-09-12T06:24:44;20.30;99.90
4896;DHT22;2463;49.948;8.472;2023-09-12T06:27:11;20.20;99.90
4896;DHT22;2463;49.948;8.472;2023-09-12T06:29:40;20.20;99.90
4896;DHT22;2463;49.948;8.472;2023-09-12T06:32:06;20.20;99.90
4896;DHT22;2463;49.948;8.472;2023-09-12T06:34:33;20.20;99.90
4896;DHT22;2463;49.948;8.472;2023-09-12T06:37:00;20.10;99.90
4896;DHT22;2463;49.948;8.472;2023-09-12T06:39:27;20.10;99.90
4896;DHT22;2463;49.948;8.472;2023-09-12T06:41:53;20.10;99.90
4896;DHT22;2463;49.948;8.472;2023-09-12T06:44:23;20.20;99.90
4896;DHT22;2463;49.948;8.472;2023-09-12T06:46:50;20.30;99.90
4896;DHT22;2463;49.948;8.472;2023-09-12T06:49:16;20.50;99.90
4896;DHT22;2463;49.948;8.472;2023-09-12T06:51:43;20.60;99.90
4896;DHT22;2463;49.948;8.472;2023-09-12T06:54:10;20.80;99.90
4896;DHT22;2463;49.948;8.472;2023-09-12T06:56:36;20.90;99.90
4896;DHT22;2463;49.948;8.472;2023-09-12T06:59:04;21.10;99.90
4896;DHT22;2463;49.948;8.472;2023-09-12T07:01:31;21.20;99.90
4896;DHT22;2463;49.948;8.472;2023-09-12T07:03:58;21.40;99.90
4896;DHT22;2463;49.948;8.472;2023-09-12T07:06:25;21.60;99.90
4896;DHT22;2463;49.948;8.472;2023-09-12T07:08:51;21.80;99.90
4896;DHT22;2463;49.948;8.472;2023-09-12T07:11:18;22.00;99.90
4896;DHT22;2463;49.948;8.472;2023-09-12T07:13:46;22.20;99.90
4896;DHT22;2463;49.948;8.472;2023-09-12T07:16:13;22.60;99.90
4896;DHT22;2463;49.948;8.472;2023-09-12T07:18:40;23.50;99.90
4896;DHT22;2463;49.948;8.472;2023-09-12T07:21:07;24.90;99.90
4896;DHT22;2463;49.948;8.472;2023-09-12T07:23:33;26.40;99.90
4896;DHT22;2463;49.948;8.472;2023-09-12T07:26:00;27.60;99.90
4896;DHT22;2463;49.948;8.472;2023-09-12T07:28:30;29.20;99.90
4896;DHT22;2463;49.948;8.472;2023-09-12T07:30:57;30.40;99.90
4896;DHT22;2463;49.948;8.472;2023-09-12T07:33:24;31.10;99.90
4896;DHT22;2463;49.948;8.472;2023-09-12T07:35:54;31.20;99.90
4896;DHT22;2463;49.948;8.472;2023-09-12T07:38:21;31.20;99.90
4896;DHT22;2463;49.948;8.472;2023-09-12T07:40:48;31.20;99.90
4896;DHT22;2463;49.948;8.472;2023-09-12T07:43:15;31.10;99.90
4896;DHT22;2463;49.948;8.472;2023-09-12T07:45:42;30.80;99.90
4896;DHT22;2463;49.948;8.472;2023-09-12T07:48:10;30.50;99.90
4896;DHT22;2463;49.948;8.472;2023-09-12T07:50:38;30.20;99.90
4896;DHT22;2463;49.948;8.472;2023-09-12T07:53:05;29.90;99.90
4896;DHT22;2463;49.948;8.472;2023-09-12T07:55:36;29.80;99.90
4896;DHT22;2463;49.948;8.472;2023-09-12T07:58:13;29.50;99.90
4896;DHT22;2463;49.948;8.472;2023-09-12T08:00:40;29.30;99.90
4896;DHT22;2463;49.948;8.472;2023-09-12T08:03:07;29.10;99.90
4896;DHT22;2463;49.948;8.472;2023-09-12T08:05:34;28.90;99.90
4896;DHT22;2463;49.948;8.472;2023-09-12T08:08:01;28.70;99.90
4896;DHT22;2463;49.948;8.472;2023-09-12T08:10:28;28.70;99.90
4896;DHT22;2463;49.948;8.472;2023-09-12T08:12:55;28.60;99.90
4896;DHT22;2463;49.948;8.472;2023-09-12T08:15:22;28.50;99.90
4896;DHT22;2463;49.948;8.472;2023-09-12T08:17:49;28.40;99.90
4896;DHT22;2463;49.948;8.472;2023-09-12T08:20:20;28.30;99.90
4896;DHT22;2463;49.948;8.472;2023-09-12T08:22:47;28.20;99.90
4896;DHT22;2463;49.948;8.472;2023-09-12T08:25:14;28.20;99.90
4896;DHT22;2463;49.948;8.472;2023-09-12T08:27:41;28.20;99.90
4896;DHT22;2463;49.948;8.472;2023-09-12T08:30:12;28.20;99.90
4896;DHT22;2463;49.948;8.472;2023-09-12T08:32:40;28.20;99.90
4896;DHT22;2463;49.948;8.472;2023-09-12T08:35:11;28.20;99.90
4896;DHT22;2463;49.948;8.472;2023-09-12T08:37:40;28.30;99.90
4896;DHT22;2463;49.948;8.472;2023-09-12T08:40:08;28.40;99.90
4896;DHT22;2463;49.948;8.472;2023-09-12T08:42:41;28.50;99.90
4896;DHT22;2463;49.948;8.472;2023-09-12T08:47:41;28.80;99.90
4896;DHT22;2463;49.948;8.472;2023-09-12T08:50:15;28.90;99.90
4896;DHT22;2463;49.948;8.472;2023-09-12T08:52:47;29.00;99.90
4896;DHT22;2463;49.948;8.472;2023-09-12T08:55:32;29.10;99.90
4896;DHT22;2463;49.948;8.472;2023-09-12T08:58:03;29.20;99.90
4896;DHT22;2463;49.948;8.472;2023-09-12T09:00:30;29.30;99.90
4896;DHT22;2463;49.948;8.472;2023-09-12T09:02:57;29.40;99.90
4896;DHT22;2463;49.948;8.472;2023-09-12T09:05:25;29.50;99.90
4896;DHT22;2463;49.948;8.472;2023-09-12T09:07:54;29.60;99.90
4896;DHT22;2463;49.948;8.472;2023-09-12T09:10:22;29.70;99.90
4896;DHT22;2463;49.948;8.472;2023-09-12T09:13:09;29.90;99.90
4896;DHT22;2463;49.948;8.472;2023-09-12T09:15:37;30.10;99.90
4896;DHT22;2463;49.948;8.472;2023-09-12T09:18:09;30.30;99.90
4896;DHT22;2463;49.948;8.472;2023-09-12T09:20:38;30.40;99.90
4896;DHT22;2463;49.948;8.472;2023-09-12T09:23:07;30.50;99.90
4896;DHT22;2463;49.948;8.472;2023-09-12T09:25:39;30.60;99.90
4896;DHT22;2463;49.948;8.472;2023-09-12T09:28:17;30.50;99.90
4896;DHT22;2463;49.948;8.472;2023-09-12T09:30:46;30.50;99.90
4896;DHT22;2463;49.948;8.472;2023-09-12T09:33:15;30.60;99.90
4896;DHT22;2463;49.948;8.472;2023-09-12T09:35:43;30.80;99.90
4896;DHT22;2463;49.948;8.472;2023-09-12T09:38:10;30.90;99.90
4896;DHT22;2463;49.948;8.472;2023-09-12T09:40:39;31.10;99.90
4896;DHT22;2463;49.948;8.472;2023-09-12T09:43:06;31.10;99.90
4896;DHT22;2463;49.948;8.472;2023-09-12T09:45:43;31.20;99.90
4896;DHT22;2463;49.948;8.472;2023-09-12T09:48:18;31.50;99.90
4896;DHT22;2463;49.948;8.472;2023-09-12T09:50:45;31.60;99.90
4896;DHT22;2463;49.948;8.472;2023-09-12T09:53:11;31.80;99.90
4896;DHT22;2463;49.948;8.472;2023-09-12T09:55:38;32.00;99.90
4896;DHT22;2463;49.948;8.472;2023-09-12T09:58:05;32.10;99.90
4896;DHT22;2463;49.948;8.472;2023-09-12T10:00:37;32.20;99.90
4896;DHT22;2463;49.948;8.472;2023-09-12T10:03:05;32.30;99.90
4896;DHT22;2463;49.948;8.472;2023-09-12T10:05:37;32.50;99.90
4896;DHT22;2463;49.948;8.472;2023-09-12T10:08:07;32.70;99.90
4896;DHT22;2463;49.948;8.472;2023-09-12T10:10:38;32.90;99.90
4896;DHT22;2463;49.948;8.472;2023-09-12T10:13:05;33.10;99.90
4896;DHT22;2463;49.948;8.472;2023-09-12T10:15:36;33.20;99.90
4896;DHT22;2463;49.948;8.472;2023-09-12T10:18:09;33.60;99.90
4896;DHT22;2463;49.948;8.472;2023-09-12T10:21:07;33.80;99.90
4896;DHT22;2463;49.948;8.472;2023-09-12T10:23:38;34.00;99.90
4896;DHT22;2463;49.948;8.472;2023-09-12T10:26:13;34.20;99.90
4896;DHT22;2463;49.948;8.472;2023-09-12T10:28:41;34.20;99.90
4896;DHT22;2463;49.948;8.472;2023-09-12T10:31:12;34.30;99.90
4896;DHT22;2463;49.948;8.472;2023-09-12T10:33:39;34.30;99.90
4896;DHT22;2463;49.948;8.472;2023-09-12T10:36:08;34.50;99.90
4896;DHT22;2463;49.948;8.472;2023-09-12T10:38:55;34.70;99.90
4896;DHT22;2463;49.948;8.472;2023-09-12T10:41:24;35.10;99.90
4896;DHT22;2463;49.948;8.472;2023-09-12T10:43:53;35.10;99.90
4896;DHT22;2463;49.948;8.472;2023-09-12T10:46:20;34.80;99.10
4896;DHT22;2463;49.948;8.472;2023-09-12T10:48:48;34.60;99.90
4896;DHT22;2463;49.948;8.472;2023-09-12T10:51:16;34.40;99.90
4896;DHT22;2463;49.948;8.472;2023-09-12T10:53:49;34.20;99.90
4896;DHT22;2463;49.948;8.472;2023-09-12T10:56:19;33.70;99.50
4896;DHT22;2463;49.948;8.472;2023-09-12T11:01:31;32.80;99.90
4896;DHT22;2463;49.948;8.472;2023-09-12T11:03:58;32.60;99.90
4896;DHT22;2463;49.948;8.472;2023-09-12T11:06:29;32.50;99.90
4896;DHT22;2463;49.948;8.472;2023-09-12T11:11:42;32.50;99.90
4896;DHT22;2463;49.948;8.472;2023-09-12T11:14:09;32.50;99.90
4896;DHT22;2463;49.948;8.472;2023-09-12T11:16:36;32.40;99.90
4896;DHT22;2463;49.948;8.472;2023-09-12T11:21:39;32.50;99.90
4896;DHT22;2463;49.948;8.472;2023-09-12T11:24:07;32.40;99.90
4896;DHT22;2463;49.948;8.472;2023-09-12T11:26:33;32.30;99.90
4896;DHT22;2463;49.948;8.472;2023-09-12T11:29:18;32.20;99.90
4896;DHT22;2463;49.948;8.472;2023-09-12T11:31:59;32.10;99.90
4896;DHT22;2463;49.948;8.472;2023-09-12T11:34:26;32.00;99.90
4896;DHT22;2463;49.948;8.472;2023-09-12T11:36:58;32.10;99.90
4896;DHT22;2463;49.948;8.472;2023-09-12T11:39:31;32.30;99.90
4896;DHT22;2463;49.948;8.472;2023-09-12T11:42:00;32.50;99.90
4896;DHT22;2463;49.948;8.472;2023-09-12T11:44:27;32.90;99.90
4896;DHT22;2463;49.948;8.472;2023-09-12T11:46:55;33.10;99.90
4896;DHT22;2463;49.948;8.472;2023-09-12T11:49:22;33.10;99.90
4896;DHT22;2463;49.948;8.472;2023-09-12T11:51:53;32.70;99.90
4896;DHT22;2463;49.948;8.472;2023-09-12T11:54:24;32.60;99.90
4896;DHT22;2463;49.948;8.472;2023-09-12T11:56:52;32.60;99.90
4896;DHT22;2463;49.948;8.472;2023-09-12T11:59:26;32.90;99.90
4896;DHT22;2463;49.948;8.472;2023-09-12T12:01:54;33.30;99.90
4896;DHT22;2463;49.948;8.472;2023-09-12T12:04:24;33.70;99.90
4896;DHT22;2463;49.948;8.472;2023-09-12T12:06:52;33.90;99.90
4896;DHT22;2463;49.948;8.472;2023-09-12T12:09:19;34.00;99.90
4896;DHT22;2463;49.948;8.472;2023-09-12T12:11:47;34.20;99.90
4896;DHT22;2463;49.948;8.472;2023-09-12T12:14:15;34.50;99.90
4896;DHT22;2463;49.948;8.472;2023-09-12T12:16:43;34.80;99.90
4896;DHT22;2463;49.948;8.472;2023-09-12T12:19:11;35.10;99.20
4896;DHT22;2463;49.948;8.472;2023-09-12T12:21:42;35.20;99.90
4896;DHT22;2463;49.948;8.472;2023-09-12T12:24:14;34.80;98.90
4896;DHT22;2463;49.948;8.472;2023-09-12T12:26:41;34.80;99.80
4896;DHT22;2463;49.948;8.472;2023-09-12T12:29:10;34.80;99.50
4896;DHT22;2463;49.948;8.472;2023-09-12T12:31:38;35.00;99.90
4896;DHT22;2463;49.948;8.472;2023-09-12T12:34:05;35.00;99.90
4896;DHT22;2463;49.948;8.472;2023-09-12T12:36:54;35.10;99.90
4896;DHT22;2463;49.948;8.472;2023-09-12T12:39:24;35.20;99.90
4896;DHT22;2463;49.948;8.472;2023-09-12T12:41:54;35.30;99.90
4896;DHT22;2463;49.948;8.472;2023-09-12T12:44:21;35.50;99.90
4896;DHT22;2463;49.948;8.472;2023-09-12T12:49:16;35.70;99.90
4896;DHT22;2463;49.948;8.472;2023-09-12T12:51:44;35.70;99.00
4896;DHT22;2463;49.948;8.472;2023-09-12T12:54:11;35.60;97.80
4896;DHT22;2463;49.948;8.472;2023-09-12T12:56:38;35.50;99.50
4896;DHT22;2463;49.948;8.472;2023-09-12T12:59:07;35.30;98.60
4896;DHT22;2463;49.948;8.472;2023-09-12T13:01:36;34.90;97.60
4896;DHT22;2463;49.948;8.472;2023-09-12T13:04:09;34.70;99.90
4896;DHT22;2463;49.948;8.472;2023-09-12T13:06:36;34.70;98.90
4896;DHT22;2463;49.948;8.472;2023-09-12T13:09:04;34.40;98.60
4896;DHT22;2463;49.948;8.472;2023-09-12T13:11:32;34.30;99.90
4896;DHT22;2463;49.948;8.472;2023-09-12T13:14:03;34.50;99.70
4896;DHT22;2463;49.948;8.472;2023-09-12T13:16:37;34.50;99.40
4896;DHT22;2463;49.948;8.472;2023-09-12T13:19:06;34.60;99.80
4896;DHT22;2463;49.948;8.472;2023-09-12T13:21:33;34.60;98.50
4896;DHT22;2463;49.948;8.472;2023-09-12T13:24:00;34.60;98.90
4896;DHT22;2463;49.948;8.472;2023-09-12T13:26:28;34.70;99.00
4896;DHT22;2463;49.948;8.472;2023-09-12T13:28:55;34.80;98.20
4896;DHT22;2463;49.948;8.472;2023-09-12T13:31:22;34.60;98.20
4896;DHT22;2463;49.948;8.472;2023-09-12T13:33:49;34.60;99.90
4896;DHT22;2463;49.948;8.472;2023-09-12T13:36:16;34.60;99.30
4896;DHT22;2463;49.948;8.472;2023-09-12T13:38:43;34.60;98.70
4896;DHT22;2463;49.948;8.472;2023-09-12T13:41:10;34.60;99.90
4896;DHT22;2463;49.948;8.472;2023-09-12T13:43:37;34.40;98.00
4896;DHT22;2463;49.948;8.472;2023-09-12T13:46:03;34.40;98.20
4896;DHT22;2463;49.948;8.472;2023-09-12T13:48:30;34.20;98.70
4896;DHT22;2463;49.948;8.472;2023-09-12T13:50:57;34.30;99.90
4896;DHT22;2463;49.948;8.472;2023-09-12T13:53:24;34.40;99.50
4896;DHT22;2463;49.948;8.472;2023-09-12T13:55:50;34.50;98.70
4896;DHT22;2463;49.948;8.472;2023-09-12T13:58:37;34.50;98.30
4896;DHT22;2463;49.948;8.472;2023-09-12T14:01:18;34.60;98.10
4896;DHT22;2463;49.948;8.472;2023-09-12T14:04:00;34.50;98.70
4896;DHT22;2463;49.948;8.472;2023-09-12T14:08:55;34.80;99.40
4896;DHT22;2463;49.948;8.472;2023-09-12T14:11:22;34.90;98.20
4896;DHT22;2463;49.948;8.472;2023-09-12T14:14:00;35.00;98.90
4896;DHT22;2463;49.948;8.472;2023-09-12T14:16:41;35.00;99.00
4896;DHT22;2463;49.948;8.472;2023-09-12T14:19:13;35.10;98.40
4896;DHT22;2463;49.948;8.472;2023-09-12T14:21:42;35.20;99.50
4896;DHT22;2463;49.948;8.472;2023-09-12T14:24:12;35.20;99.70
4896;DHT22;2463;49.948;8.472;2023-09-12T14:26:39;35.20;98.30
4896;DHT22;2463;49.948;8.472;2023-09-12T14:29:07;35.10;99.80
4896;DHT22;2463;49.948;8.472;2023-09-12T14:31:34;35.10;99.70
4896;DHT22;2463;49.948;8.472;2023-09-12T14:34:04;35.10;99.90
4896;DHT22;2463;49.948;8.472;2023-09-12T14:36:31;35.00;99.90
4896;DHT22;2463;49.948;8.472;2023-09-12T14:38:58;35.00;99.80
4896;DHT22;2463;49.948;8.472;2023-09-12T14:41:25;35.00;99.00
4896;DHT22;2463;49.948;8.472;2023-09-12T14:43:52;35.00;98.40
4896;DHT22;2463;49.948;8.472;2023-09-12T14:46:18;34.90;98.10
4896;DHT22;2463;49.948;8.472;2023-09-12T14:48:46;34.80;99.60
4896;DHT22;2463;49.948;8.472;2023-09-12T14:51:26;34.80;97.60
4896;DHT22;2463;49.948;8.472;2023-09-12T14:53:59;34.70;97.90
4896;DHT22;2463;49.948;8.472;2023-09-12T14:56:26;34.60;99.50
4896;DHT22;2463;49.948;8.472;2023-09-12T14:58:53;34.50;97.70
4896;DHT22;2463;49.948;8.472;2023-09-12T15:01:19;34.50;96.80
4896;DHT22;2463;49.948;8.472;2023-09-12T15:03:46;34.30;98.50
4896;DHT22;2463;49.948;8.472;2023-09-12T15:06:13;34.30;99.50
4896;DHT22;2463;49.948;8.472;2023-09-12T15:08:40;34.20;99.70
4896;DHT22;2463;49.948;8.472;2023-09-12T15:11:07;34.20;99.90
4896;DHT22;2463;49.948;8.472;2023-09-12T15:13:34;34.10;99.90
4896;DHT22;2463;49.948;8.472;2023-09-12T15:16:02;34.10;99.70
4896;DHT22;2463;49.948;8.472;2023-09-12T15:18:29;34.00;99.90
4896;DHT22;2463;49.948;8.472;2023-09-12T15:20:56;33.90;99.90
4896;DHT22;2463;49.948;8.472;2023-09-12T15:23:22;33.80;99.90
4896;DHT22;2463;49.948;8.472;2023-09-12T15:25:50;33.70;99.90
4896;DHT22;2463;49.948;8.472;2023-09-12T15:28:17;33.60;99.90
4896;DHT22;2463;49.948;8.472;2023-09-12T15:30:44;33.50;99.90
4896;DHT22;2463;49.948;8.472;2023-09-12T15:33:11;33.40;99.90
4896;DHT22;2463;49.948;8.472;2023-09-12T15:35:38;33.20;99.90
4896;DHT22;2463;49.948;8.472;2023-09-12T15:38:05;33.20;99.90
4896;DHT22;2463;49.948;8.472;2023-09-12T15:40:33;33.10;99.90
4896;DHT22;2463;49.948;8.472;2023-09-12T15:43:00;33.00;99.90
4896;DHT22;2463;49.948;8.472;2023-09-12T15:45:47;32.90;99.90
4896;DHT22;2463;49.948;8.472;2023-09-12T15:48:17;32.80;99.90
4896;DHT22;2463;49.948;8.472;2023-09-12T15:50:44;32.70;99.90
4896;DHT22;2463;49.948;8.472;2023-09-12T15:53:11;32.60;99.90
4896;DHT22;2463;49.948;8.472;2023-09-12T15:55:37;32.40;99.90
4896;DHT22;2463;49.948;8.472;2023-09-12T15:58:04;32.30;99.90
4896;DHT22;2463;49.948;8.472;2023-09-12T16:00:31;32.20;99.90
4896;DHT22;2463;49.948;8.472;2023-09-12T16:02:58;32.10;99.90
4896;DHT22;2463;49.948;8.472;2023-09-12T16:05:25;32.00;99.90
4896;DHT22;2463;49.948;8.472;2023-09-12T16:07:52;31.90;99.90
4896;DHT22;2463;49.948;8.472;2023-09-12T16:10:19;31.80;99.90
4896;DHT22;2463;49.948;8.472;2023-09-12T16:12:46;31.80;99.90
4896;DHT22;2463;49.948;8.472;2023-09-12T16:15:13;31.70;99.90
4896;DHT22;2463;49.948;8.472;2023-09-12T16:17:41;31.60;99.90
4896;DHT22;2463;49.948;8.472;2023-09-12T16:20:11;31.50;99.90
4896;DHT22;2463;49.948;8.472;2023-09-12T16:22:40;31.50;99.90
4896;DHT22;2463;49.948;8.472;2023-09-12T16:25:07;31.40;99.90
4896;DHT22;2463;49.948;8.472;2023-09-12T16:27:35;31.30;99.90
4896;DHT22;2463;49.948;8.472;2023-09-12T16:30:04;31.10;99.90